Time;durP1;ratioP1;P1;durP2;ratioP2;P2;SDS_P1;SDS_P2;PMS_P1;PMS_P2;Temp;Humidity;BMP_temperature;BMP_pressure;BME280_temperature;BME280_humidity;BME280_pressure;Samples;Min_cycle;Max_cycle;Signal;HPM_P1;HPM_P2
2023/03/01 00:00:34;;;;;;;;;;;;;;;16.10;41.88;93868.63;5040738;28;19974;-90
2023/03/01 00:02:59;;;;;;;;;;;;;;;16.13;41.71;93863.41;5043845;28;20340;-90
2023/03/01 00:05:24;;;;;;;;;;;;;;;16.14;41.64;93862.19;5029509;28;19931;-89
2023/03/01 00:07:52;;;;;;;;;;;;;;;16.11;41.97;93861.19;5055140;28;19932;-91
2023/03/01 00:10:17;;;;;;;;;;;;;;;16.11;42.11;93863.91;5071101;28;19920;-93
2023/03/01 00:12:42;;;;;;;;;;;;;;;16.13;41.95;93868.88;5075549;28;19923;-90
2023/03/01 00:15:08;;;;;;;;;;;;;;;16.10;41.86;93854.97;5085614;28;19920;-89
2023/03/01 00:17:33;;;;;;;;;;;;;;;16.09;41.70;93861.66;5072813;28;20015;-89
2023/03/01 00:19:58;;;;;;;;;;;;;;;16.08;42.06;93843.81;5075947;28;19926;-89
2023/03/01 00:22:23;;;;;;;;;;;;;;;16.09;41.97;93858.19;5109268;28;19924;-89
2023/03/01 00:24:49;;;;;;;;;;;;;;;16.11;41.79;93847.53;5096034;28;20350;-89
2023/03/01 00:27:14;;;;;;;;;;;;;;;16.10;41.92;93854.97;5063443;28;19928;-90
2023/03/01 00:29:39;;;;;;;;;;;;;;;16.11;41.76;93856.47;5054314;28;20007;-89
2023/03/01 00:32:04;;;;;;;;;;;;;;;16.11;41.62;93856.47;5053637;28;19993;-91
2023/03/01 00:34:30;;;;;;;;;;;;;;;16.10;41.80;93857.69;5109592;28;19923;-90
2023/03/01 00:36:55;;;;;;;;;;;;;;;16.09;41.96;93858.94;5092439;28;20588;-88
2023/03/01 00:39:20;;;;;;;;;;;;;;;16.09;41.80;93850.75;5074316;28;19924;-91
2023/03/01 00:41:45;;;;;;;;;;;;;;;16.09;42.03;93853.47;5059592;28;19999;-91
2023/03/01 00:44:11;;;;;;;;;;;;;;;16.08;42.14;93854.72;5076891;28;19928;-91
2023/03/01 00:46:36;;;;;;;;;;;;;;;16.07;41.67;93844.28;5065120;28;19924;-90
2023/03/01 00:49:02;;;;;;;;;;;;;;;16.08;42.05;93843.06;5079807;28;19978;-90
2023/03/01 00:51:27;;;;;;;;;;;;;;;16.09;41.93;93833.63;5058776;28;20362;-90
2023/03/01 00:53:53;;;;;;;;;;;;;;;16.08;41.93;93830.16;5091924;28;19931;-90
2023/03/01 00:56:18;;;;;;;;;;;;;;;16.09;41.64;93828.19;5066194;28;19924;-91
2023/03/01 00:58:43;;;;;;;;;;;;;;;16.06;42.11;93824.44;5055239;28;19928;-90
2023/03/01 01:01:16;;;;;;;;;;;;;;;16.07;41.71;93825.94;5080872;28;19924;-89
2023/03/01 01:03:42;;;;;;;;;;;;;;;16.07;41.99;93819.75;5091860;28;19928;-90
2023/03/01 01:06:12;;;;;;;;;;;;;;;16.08;41.84;93821.97;5069329;28;20018;-91
2023/03/01 01:08:37;;;;;;;;;;;;;;;16.08;41.97;93818.50;5071251;28;20022;-91
2023/03/01 01:11:04;;;;;;;;;;;;;;;16.07;41.83;93812.31;5078053;28;20010;-90
2023/03/01 01:13:29;;;;;;;;;;;;;;;16.06;41.97;93808.09;5045790;28;19924;-90
2023/03/01 01:15:54;;;;;;;;;;;;;;;16.07;41.72;93809.59;5091691;28;19926;-91
2023/03/01 01:18:20;;;;;;;;;;;;;;;16.05;41.73;93809.31;5063220;28;20317;-90
2023/03/01 01:20:46;;;;;;;;;;;;;;;16.06;42.07;93804.63;5085777;28;20396;-89
2023/03/01 01:23:11;;;;;;;;;;;;;;;16.03;42.16;93808.31;5074230;28;20392;-90
2023/03/01 01:25:36;;;;;;;;;;;;;;;16.04;42.06;93810.53;5059561;28;19920;-89
2023/03/01 01:28:02;;;;;;;;;;;;;;;16.03;41.72;93805.56;5084434;28;20332;-89
2023/03/01 01:30:27;;;;;;;;;;;;;;;16.03;41.98;93803.59;5081576;28;19939;-91
2023/03/01 01:32:52;;;;;;;;;;;;;;;16.05;42.25;93803.13;5058358;28;19981;-89
2023/03/01 01:35:17;;;;;;;;;;;;;;;16.03;42.14;93800.88;5092434;28;19920;-89
2023/03/01 01:37:44;;;;;;;;;;;;;;;16.05;41.68;93803.13;5068755;28;20405;-89
2023/03/01 01:40:09;;;;;;;;;;;;;;;16.03;41.81;93791.94;5063917;28;19924;-90
2023/03/01 01:42:34;;;;;;;;;;;;;;;16.04;42.09;93791.47;5071617;28;19946;-90
2023/03/01 01:45:19;;;;;;;;;;;;;;;16.04;42.00;93790.72;5074244;28;19936;-92
2023/03/01 01:47:48;;;;;;;;;;;;;;;16.05;41.71;93789.47;5091679;28;19942;-91
2023/03/01 01:50:14;;;;;;;;;;;;;;;16.05;41.85;93792.97;5060524;28;19924;-90
2023/03/01 01:52:39;;;;;;;;;;;;;;;16.05;41.76;93784.03;5085018;28;19968;-90
2023/03/01 01:55:07;;;;;;;;;;;;;;;16.04;42.06;93785.25;5059717;28;19924;-91
2023/03/01 01:57:37;;;;;;;;;;;;;;;16.04;41.71;93786.00;5105175;28;19924;-90
2023/03/01 02:00:04;;;;;;;;;;;;;;;16.02;42.08;93780.28;5057033;28;19924;-90
2023/03/01 02:02:30;;;;;;;;;;;;;;;16.03;41.60;93781.78;5074554;28;19964;-90
2023/03/01 02:04:58;;;;;;;;;;;;;;;16.03;41.89;93781.03;5061255;28;20503;-89
2023/03/01 02:07:24;;;;;;;;;;;;;;;16.04;41.79;93779.81;5084698;28;19924;-90
2023/03/01 02:09:50;;;;;;;;;;;;;;;16.04;42.07;93782.53;5055846;28;19986;-93
2023/03/01 02:12:17;;;;;;;;;;;;;;;16.06;41.88;93788.25;5070696;28;20019;-89
2023/03/01 02:14:43;;;;;;;;;;;;;;;16.05;41.86;93786.75;5073991;28;19946;-90
2023/03/01 02:17:08;;;;;;;;;;;;;;;16.03;42.20;93789.22;5060586;28;19928;-89
2023/03/01 02:19:42;;;;;;;;;;;;;;;16.03;41.68;93787.25;5053577;28;20010;-92
2023/03/01 02:22:16;;;;;;;;;;;;;;;16.03;42.15;93783.75;5065552;28;19924;-90
2023/03/01 02:24:45;;;;;;;;;;;;;;;16.02;41.83;93782.28;5072037;28;20004;-90
2023/03/01 02:27:10;;;;;;;;;;;;;;;16.01;41.77;93776.09;5083167;28;20015;-90
2023/03/01 02:29:35;;;;;;;;;;;;;;;16.02;42.10;93774.84;5063998;28;20417;-90
2023/03/01 02:32:01;;;;;;;;;;;;;;;15.99;42.13;93770.38;5061011;28;19924;-89
2023/03/01 02:34:26;;;;;;;;;;;;;;;15.98;42.15;93774.34;5064425;28;19973;-93
2023/03/01 02:36:56;;;;;;;;;;;;;;;16.00;42.10;93766.41;5080884;28;20013;-89
2023/03/01 02:39:25;;;;;;;;;;;;;;;15.99;41.83;93773.09;5073175;28;19951;-90
2023/03/01 02:41:51;;;;;;;;;;;;;;;15.99;42.16;93775.09;5059018;28;20514;-90
2023/03/01 02:44:16;;;;;;;;;;;;;;;16.02;41.81;93779.56;5073791;28;20393;-89
2023/03/01 02:46:44;;;;;;;;;;;;;;;16.03;41.81;93762.69;5068915;28;19955;-90
2023/03/01 02:49:16;;;;;;;;;;;;;;;16.02;42.07;93774.13;5076789;28;19936;-90
2023/03/01 02:51:52;;;;;;;;;;;;;;;16.02;41.67;93774.13;5066541;28;19939;-90
2023/03/01 02:54:25;;;;;;;;;;;;;;;16.02;42.00;93774.13;5075724;28;19970;-91
2023/03/01 02:56:50;;;;;;;;;;;;;;;16.01;42.06;93769.91;5069053;28;20380;-90
2023/03/01 02:59:16;;;;;;;;;;;;;;;16.01;41.77;93773.38;5062312;28;19977;-91
2023/03/01 03:01:42;;;;;;;;;;;;;;;16.03;41.73;93781.78;5096541;28;19979;-90
2023/03/01 03:04:09;;;;;;;;;;;;;;;16.02;42.13;93779.56;5087715;28;20393;-90
2023/03/01 03:06:34;;;;;;;;;;;;;;;16.01;42.11;93784.28;5066584;28;19924;-90
2023/03/01 03:09:00;;;;;;;;;;;;;;;16.01;41.81;93770.63;5087150;28;19935;-90
2023/03/01 03:11:25;;;;;;;;;;;;;;;16.02;42.21;93765.94;5080545;28;20358;-90
2023/03/01 03:13:51;;;;;;;;;;;;;;;16.01;41.70;93770.63;5082517;28;20090;-89
2023/03/01 03:16:17;;;;;;;;;;;;;;;16.02;41.76;93765.94;5049777;28;19932;-89
2023/03/01 03:18:42;;;;;;;;;;;;;;;16.00;42.00;93758.25;5064985;28;19928;-90
2023/03/01 03:21:10;;;;;;;;;;;;;;;16.02;41.95;93752.31;5059486;28;19965;-90
2023/03/01 03:23:35;;;;;;;;;;;;;;;16.00;41.97;93747.34;5076032;27;19924;-89
2023/03/01 03:26:01;;;;;;;;;;;;;;;16.01;41.83;93740.66;5093573;27;19924;-89
2023/03/01 03:28:26;;;;;;;;;;;;;;;15.99;41.82;93747.81;5082874;28;19932;-89
2023/03/01 03:30:51;;;;;;;;;;;;;;;16.00;42.08;93746.59;5058732;28;19999;-89
2023/03/01 03:33:16;;;;;;;;;;;;;;;16.00;41.71;93741.88;5078852;28;20204;-89
2023/03/01 03:35:47;;;;;;;;;;;;;;;16.00;41.81;93735.69;5062525;28;20397;-90
2023/03/01 03:38:15;;;;;;;;;;;;;;;15.98;42.25;93736.16;5069599;27;19955;-90
2023/03/01 03:40:43;;;;;;;;;;;;;;;16.00;41.85;93743.84;5094813;28;19935;-92
2023/03/01 03:43:09;;;;;;;;;;;;;;;16.00;42.07;93727.50;5081180;28;19924;-90
2023/03/01 03:45:34;;;;;;;;;;;;;;;16.00;42.12;93732.94;5089065;28;19920;-89
2023/03/01 03:48:00;;;;;;;;;;;;;;;15.98;42.18;93733.44;5082930;28;19928;-92
2023/03/01 03:50:25;;;;;;;;;;;;;;;15.98;41.78;93736.16;5072628;28;19920;-90
2023/03/01 03:52:50;;;;;;;;;;;;;;;15.99;42.12;93734.94;5082697;28;19927;-91
2023/03/01 03:55:19;;;;;;;;;;;;;;;15.99;42.01;93737.66;5071986;28;20035;-90
2023/03/01 03:57:44;;;;;;;;;;;;;;;15.99;41.85;93734.19;5082204;28;20026;-89
2023/03/01 04:00:12;;;;;;;;;;;;;;;15.98;42.08;93736.16;5077242;28;20387;-89
2023/03/01 04:02:42;;;;;;;;;;;;;;;15.99;41.74;93736.91;5069852;28;20433;-94
2023/03/01 04:05:07;;;;;;;;;;;;;;;15.97;41.80;93734.66;5079578;28;19947;-90
2023/03/01 04:07:33;;;;;;;;;;;;;;;15.97;41.97;93733.91;5069652;28;19975;-90
2023/03/01 04:09:59;;;;;;;;;;;;;;;15.98;41.84;93733.44;5066377;28;19920;-89
2023/03/01 04:12:25;;;;;;;;;;;;;;;15.99;41.85;93726.75;5070777;28;20416;-91
2023/03/01 04:14:50;;;;;;;;;;;;;;;15.98;42.16;93732.69;5065246;28;20027;-90
2023/03/01 04:17:15;;;;;;;;;;;;;;;15.98;41.84;93722.53;5067038;28;20293;-91
2023/03/01 04:19:43;;;;;;;;;;;;;;;16.00;41.77;93730.22;5080694;28;19935;-92
2023/03/01 04:22:11;;;;;;;;;;;;;;;15.98;41.86;93724.50;5052069;28;20365;-92
2023/03/01 04:24:36;;;;;;;;;;;;;;;15.96;41.91;93733.16;5091011;28;19928;-89
2023/03/01 04:27:01;;;;;;;;;;;;;;;15.94;41.75;93730.19;5072421;28;20632;-90
2023/03/01 04:29:26;;;;;;;;;;;;;;;15.97;41.90;93728.47;5074314;28;20011;-89
2023/03/01 04:31:53;;;;;;;;;;;;;;;15.99;41.96;93734.19;5058778;28;19924;-89
2023/03/01 04:34:20;;;;;;;;;;;;;;;15.97;42.16;93737.41;5077489;28;19935;-90
2023/03/01 04:37:02;;;;;;;;;;;;;;;15.99;42.21;93726.00;5102042;28;21315;-91
2023/03/01 04:39:28;;;;;;;;;;;;;;;15.98;41.87;93730.72;5096893;28;19977;-92
2023/03/01 04:41:54;;;;;;;;;;;;;;;15.96;41.83;93726.97;5091834;28;19924;-90
2023/03/01 04:44:19;;;;;;;;;;;;;;;15.98;41.98;93717.06;5072557;28;19923;-91
2023/03/01 04:46:44;;;;;;;;;;;;;;;15.97;42.18;93725.75;5074659;28;19928;-92
2023/03/01 04:49:10;;;;;;;;;;;;;;;15.97;42.19;93728.47;5073153;28;19924;-90
2023/03/01 04:51:35;;;;;;;;;;;;;;;15.99;41.76;93723.28;5060213;28;20277;-91
2023/03/01 04:54:00;;;;;;;;;;;;;;;15.98;41.89;93729.97;5092802;28;19932;-89
2023/03/01 04:56:25;;;;;;;;;;;;;;;15.98;41.78;93721.78;5062874;28;20003;-90
2023/03/01 04:58:53;;;;;;;;;;;;;;;15.98;42.06;93727.97;5090795;28;20261;-88
2023/03/01 05:01:19;;;;;;;;;;;;;;;15.98;41.95;93724.50;5099712;28;19924;-90
2023/03/01 05:03:45;;;;;;;;;;;;;;;15.98;41.81;93729.97;5080913;28;20014;-89
2023/03/01 05:06:10;;;;;;;;;;;;;;;15.96;42.18;93724.25;5068885;28;20404;-89
2023/03/01 05:08:39;;;;;;;;;;;;;;;15.97;41.76;93731.19;5053562;28;19935;-89
2023/03/01 05:11:05;;;;;;;;;;;;;;;15.97;41.88;93725.75;5067588;28;19924;-92
2023/03/01 05:13:30;;;;;;;;;;;;;;;15.97;42.09;93731.19;5054322;28;20301;-89
2023/03/01 05:15:56;;;;;;;;;;;;;;;15.99;41.97;93726.00;5074838;28;20292;-90
2023/03/01 05:18:25;;;;;;;;;;;;;;;15.98;42.03;93717.06;5057516;28;20462;-90
2023/03/01 05:20:51;;;;;;;;;;;;;;;15.96;41.90;93721.53;5088985;28;19964;-90
2023/03/01 05:23:17;;;;;;;;;;;;;;;15.97;42.40;93718.31;5063575;28;19923;-89
2023/03/01 05:25:42;;;;;;;;;;;;;;;15.97;41.96;93712.84;5084775;28;19980;-88
2023/03/01 05:28:10;;;;;;;;;;;;;;;15.96;42.46;93713.34;5122606;27;19923;-90
2023/03/01 05:30:40;;;;;;;;;;;;;;;15.94;41.96;93705.66;5078466;28;19959;-91
2023/03/01 05:33:10;;;;;;;;;;;;;;;15.97;41.95;93710.13;5068526;28;20004;-88
2023/03/01 05:35:35;;;;;;;;;;;;;;;16.02;42.41;93705.94;5083236;28;20377;-89
2023/03/01 05:38:07;;;;;;;;;;;;;;;16.02;42.14;93695.75;5073935;28;19977;-88
2023/03/01 05:40:32;;;;;;;;;;;;;;;16.05;42.18;93716.59;5092526;28;19934;-87
2023/03/01 05:42:58;;;;;;;;;;;;;;;16.12;42.23;93704.50;5084271;28;19920;-91
2023/03/01 05:45:24;;;;;;;;;;;;;;;16.07;41.66;93714.13;5087008;28;20376;-92
2023/03/01 05:47:51;;;;;;;;;;;;;;;16.10;41.89;93718.63;5075948;28;19931;-89
2023/03/01 05:50:18;;;;;;;;;;;;;;;16.11;41.84;93716.63;5094266;28;19954;-90
2023/03/01 05:52:44;;;;;;;;;;;;;;;16.12;42.28;93712.69;5073914;28;19924;-90
2023/03/01 05:55:09;;;;;;;;;;;;;;;16.07;39.85;93718.84;5065223;28;19920;-92
2023/03/01 05:57:35;;;;;;;;;;;;;;;15.97;39.85;93720.28;5090640;28;19928;-89
2023/03/01 06:00:00;;;;;;;;;;;;;;;15.95;39.23;93720.78;5082953;28;19925;-88
2023/03/01 06:02:25;;;;;;;;;;;;;;;15.92;38.77;93721.75;5060200;28;19959;-89
2023/03/01 06:04:50;;;;;;;;;;;;;;;15.93;39.78;93720.50;5074186;27;20375;-91
2023/03/01 06:07:16;;;;;;;;;;;;;;;15.93;39.64;93728.69;5054906;28;19925;-89
2023/03/01 06:09:41;;;;;;;;;;;;;;;15.97;40.18;93723.00;5077566;28;19955;-89
2023/03/01 06:12:06;;;;;;;;;;;;;;;15.97;40.01;93729.22;5039920;28;19929;-89
2023/03/01 06:14:32;;;;;;;;;;;;;;;16.01;41.30;93726.25;5012612;28;19929;-90
2023/03/01 06:16:58;;;;;;;;;;;;;;;16.00;40.94;93724.78;5070162;28;19924;-89
2023/03/01 06:19:23;;;;;;;;;;;;;;;16.00;41.31;93724.78;5043651;28;20440;-88
2023/03/01 06:21:50;;;;;;;;;;;;;;;16.00;41.47;93728.25;5069706;28;19920;-89
2023/03/01 06:24:15;;;;;;;;;;;;;;;16.05;41.14;93732.22;5029486;28;20224;-88
2023/03/01 06:26:41;;;;;;;;;;;;;;;16.03;41.26;93723.78;5039687;28;20455;-89
2023/03/01 06:29:14;;;;;;;;;;;;;;;16.05;41.71;93730.22;5053158;28;19935;-90
2023/03/01 06:31:39;;;;;;;;;;;;;;;16.08;41.15;93737.44;5043035;28;19936;-90
2023/03/01 06:34:05;;;;;;;;;;;;;;;16.07;41.32;93729.75;5052582;28;19924;-90
2023/03/01 06:36:30;;;;;;;;;;;;;;;16.05;39.84;93734.94;5057734;28;20286;-90
2023/03/01 06:38:56;;;;;;;;;;;;;;;16.01;39.59;93732.47;5056955;28;19924;-89
2023/03/01 06:41:21;;;;;;;;;;;;;;;16.01;39.66;93729.00;5056948;28;19928;-90
2023/03/01 06:43:46;;;;;;;;;;;;;;;16.04;40.04;93736.91;5034795;28;20314;-89
2023/03/01 06:46:11;;;;;;;;;;;;;;;16.07;39.82;93741.41;5026826;28;19928;-93
2023/03/01 06:48:37;;;;;;;;;;;;;;;16.11;40.59;93735.72;5035887;28;19936;-90
2023/03/01 06:51:02;;;;;;;;;;;;;;;16.11;40.38;93749.38;5036977;28;20362;-89
2023/03/01 06:53:28;;;;;;;;;;;;;;;16.10;40.64;93740.44;5052049;28;19932;-88
2023/03/01 06:55:54;;;;;;;;;;;;;;;16.09;40.30;93749.84;5048460;28;19929;-89
2023/03/01 06:58:19;;;;;;;;;;;;;;;16.13;40.55;93743.41;5052971;28;19925;-90
2023/03/01 07:00:44;;;;;;;;;;;;;;;16.16;40.18;93745.94;5032708;28;20432;-89
2023/03/01 07:03:09;;;;;;;;;;;;;;;16.17;40.46;93739.25;5041390;28;19982;-91
2023/03/01 07:05:35;;;;;;;;;;;;;;;16.18;40.77;93737.25;5053869;28;19932;-90
2023/03/01 07:08:00;;;;;;;;;;;;;;;16.19;40.29;93736.03;5049771;28;20095;-86
2023/03/01 07:10:25;;;;;;;;;;;;;;;16.20;39.70;93726.59;5066122;28;19929;-87
2023/03/01 07:12:55;;;;;;;;;;;;;;;16.17;39.85;93728.31;5064949;28;19974;-89
2023/03/01 07:15:20;;;;;;;;;;;;;;;16.19;40.01;93731.31;5048162;28;19963;-87
2023/03/01 07:17:47;;;;;;;;;;;;;;;16.20;40.52;93727.34;5048912;28;19958;-86
2023/03/01 07:20:12;;;;;;;;;;;;;;;16.20;40.62;93724.63;5068727;28;20002;-88
2023/03/01 07:22:39;;;;;;;;;;;;;;;16.23;40.36;93720.94;5046991;28;19931;-87
2023/03/01 07:25:04;;;;;;;;;;;;;;;16.24;40.12;93729.84;5051832;28;20445;-91
2023/03/01 07:27:32;;;;;;;;;;;;;;;16.25;40.29;93723.88;5027215;28;19925;-89
2023/03/01 07:29:57;;;;;;;;;;;;;;;16.28;40.10;93722.91;5061401;28;19920;-91
2023/03/01 07:32:22;;;;;;;;;;;;;;;16.29;40.55;93715.47;5047804;28;19932;-90
2023/03/01 07:34:47;;;;;;;;;;;;;;;16.30;40.75;93716.97;5066146;28;19979;-90
2023/03/01 07:37:13;;;;;;;;;;;;;;;16.30;40.64;93715.00;5070534;28;19932;-90
2023/03/01 07:39:38;;;;;;;;;;;;;;;16.31;40.72;93716.47;5052292;28;20015;-90
2023/03/01 07:42:03;;;;;;;;;;;;;;;16.33;40.58;93718.72;5060852;28;19935;-92
2023/03/01 07:44:28;;;;;;;;;;;;;;;16.35;40.55;93718.97;5057284;28;19929;-91
2023/03/01 07:46:56;;;;;;;;;;;;;;;16.39;40.49;93714.03;5051713;28;20330;-90
2023/03/01 07:49:21;;;;;;;;;;;;;;;16.42;40.29;93732.91;5054012;28;20332;-90
2023/03/01 07:51:46;;;;;;;;;;;;;;;16.46;40.56;93727.19;5043240;28;19986;-90
2023/03/01 07:54:11;;;;;;;;;;;;;;;16.46;40.36;93729.94;5055579;28;20171;-90
2023/03/01 07:56:37;;;;;;;;;;;;;;;16.45;40.18;93721.00;5059657;28;19935;-88
2023/03/01 07:59:02;;;;;;;;;;;;;;;16.48;40.11;93734.91;5046868;28;19924;-91
2023/03/01 08:01:29;;;;;;;;;;;;;;;16.47;40.43;93723.25;5055897;28;20007;-90
2023/03/01 08:03:56;;;;;;;;;;;;;;;16.49;40.29;93720.78;5042925;28;20018;-91
2023/03/01 08:06:33;;;;;;;;;;;;;;;16.51;40.29;93723.00;5052128;28;19924;-92
2023/03/01 08:08:58;;;;;;;;;;;;;;;16.52;40.24;93717.06;5081919;28;19928;-89
2023/03/01 08:11:24;;;;;;;;;;;;;;;16.54;40.40;93722.78;5080946;28;19936;-88
2023/03/01 08:13:50;;;;;;;;;;;;;;;16.56;40.53;93717.56;5059462;28;19932;-90
2023/03/01 08:16:15;;;;;;;;;;;;;;;16.55;40.07;93721.53;5073137;28;19928;-89
2023/03/01 08:18:40;;;;;;;;;;;;;;;16.57;40.14;93721.81;5053880;28;19924;-90
2023/03/01 08:21:07;;;;;;;;;;;;;;;16.59;40.11;93729.50;5052400;28;19978;-91
2023/03/01 08:23:34;;;;;;;;;;;;;;;16.59;40.49;93719.31;5047691;28;19943;-88
2023/03/01 08:26:12;;;;;;;;;;;;;;;16.61;40.39;93733.22;5075066;28;19929;-88
2023/03/01 08:28:37;;;;;;;;;;;;;;;16.59;40.57;93726.75;5048644;28;19967;-90
2023/03/01 08:31:02;;;;;;;;;;;;;;;16.60;40.46;93731.00;5046522;28;19929;-91
2023/03/01 08:33:28;;;;;;;;;;;;;;;16.61;40.46;93722.31;5025925;28;20014;-87
2023/03/01 08:36:01;;;;;;;;;;;;;;;16.63;40.62;93733.53;5031938;28;20016;-88
2023/03/01 08:38:27;;;;;;;;;;;;;;;16.64;40.54;93734.25;5041634;28;20473;-91
2023/03/01 08:40:53;;;;;;;;;;;;;;;16.63;40.27;93733.53;5035799;28;19972;-89
2023/03/01 08:43:18;;;;;;;;;;;;;;;16.64;40.49;93721.38;4999816;28;19960;-89
2023/03/01 08:45:43;;;;;;;;;;;;;;;16.65;40.83;93717.41;5032679;28;19928;-90
2023/03/01 08:48:10;;;;;;;;;;;;;;;16.67;40.29;93719.63;5031525;28;19979;-91
2023/03/01 08:50:36;;;;;;;;;;;;;;;16.65;40.46;93711.94;5033583;28;19928;-90
2023/03/01 08:53:01;;;;;;;;;;;;;;;16.67;40.26;93712.16;5014649;28;19983;-91
2023/03/01 08:55:26;;;;;;;;;;;;;;;16.68;40.31;93702.00;5028598;28;19929;-89
2023/03/01 08:57:52;;;;;;;;;;;;;;;16.67;40.52;93706.00;5018117;28;19936;-91
2023/03/01 09:00:17;;;;;;;;;;;;;;;16.68;40.59;93691.81;5028680;28;20011;-90
2023/03/01 09:02:43;;;;;;;;;;;;;;;16.67;40.82;93687.59;5014886;28;20008;-90
2023/03/01 09:05:09;;;;;;;;;;;;;;;16.68;40.55;93682.88;5019372;28;19929;-91
2023/03/01 09:07:34;;;;;;;;;;;;;;;16.68;40.60;93691.81;5011253;28;20019;-90
2023/03/01 09:10:01;;;;;;;;;;;;;;;16.70;40.68;93689.34;5021452;28;19964;-90
2023/03/01 09:12:26;;;;;;;;;;;;;;;16.71;40.54;93682.66;5056524;28;19927;-90
2023/03/01 09:14:51;;;;;;;;;;;;;;;16.71;40.47;93676.44;5066400;28;20591;-91
2023/03/01 09:17:17;;;;;;;;;;;;;;;16.70;40.77;93672.97;5051694;28;19921;-91
2023/03/01 09:19:42;;;;;;;;;;;;;;;16.72;40.64;93673.22;5049325;28;19979;-89
2023/03/01 09:22:07;;;;;;;;;;;;;;;16.72;40.32;93667.03;5086578;28;19920;-89
2023/03/01 09:24:33;;;;;;;;;;;;;;;16.73;40.79;93660.31;5055977;28;19935;-89
2023/03/01 09:26:58;;;;;;;;;;;;;;;16.74;40.69;93670.75;5052535;28;19921;-89
2023/03/01 09:29:24;;;;;;;;;;;;;;;16.75;40.74;93655.13;5053897;28;19933;-89
2023/03/01 09:31:49;;;;;;;;;;;;;;;16.77;40.47;93667.03;5093647;28;19924;-87
2023/03/01 09:34:22;;;;;;;;;;;;;;;16.76;40.66;93651.91;5063900;28;19924;-87
2023/03/01 09:36:49;;;;;;;;;;;;;;;16.78;40.81;93651.41;5048785;28;19920;-87
2023/03/01 09:39:17;;;;;;;;;;;;;;;16.78;40.16;93656.88;5048308;28;19927;-89
2023/03/01 09:41:49;;;;;;;;;;;;;;;16.78;40.76;93646.69;5064886;28;19928;-88
2023/03/01 09:44:33;;;;;;;;;;;;;;;16.77;40.56;93644.44;5089208;28;19931;-89
2023/03/01 09:46:58;;;;;;;;;;;;;;;16.76;40.62;93646.44;5047448;28;19974;-88
2023/03/01 09:49:24;;;;;;;;;;;;;;;16.78;40.74;93635.03;5058447;28;19920;-89
2023/03/01 09:51:57;;;;;;;;;;;;;;;16.79;40.86;93639.25;5049837;28;19932;-89
2023/03/01 09:54:23;;;;;;;;;;;;;;;16.78;40.47;93633.03;5050880;28;19951;-88
2023/03/01 09:56:53;;;;;;;;;;;;;;;16.77;40.56;93637.00;5068577;28;19924;-90
2023/03/01 09:59:33;;;;;;;;;;;;;;;16.77;40.58;93628.81;5056656;28;20330;-91
2023/03/01 10:02:17;;;;;;;;;;;;;;;16.79;40.45;93634.53;5047099;28;20356;-91
2023/03/01 10:04:47;;;;;;;;;;;;;;;16.80;40.47;93616.16;5081978;28;19978;-91
2023/03/01 10:07:13;;;;;;;;;;;;;;;16.78;40.58;93624.09;5049760;28;19939;-90
2023/03/01 10:09:38;;;;;;;;;;;;;;;16.77;40.41;93612.44;5090115;28;19924;-92
2023/03/01 10:12:10;;;;;;;;;;;;;;;16.76;40.77;93610.94;5048920;28;19927;-89
2023/03/01 10:14:36;;;;;;;;;;;;;;;16.78;40.87;93607.72;5045260;28;19962;-89
2023/03/01 10:17:08;;;;;;;;;;;;;;;16.80;40.38;93607.97;5048600;28;19957;-89
2023/03/01 10:19:38;;;;;;;;;;;;;;;16.82;40.52;93610.22;5052812;28;19927;-91
2023/03/01 10:22:05;;;;;;;;;;;;;;;16.81;40.58;93616.91;5062019;28;19928;-89
2023/03/01 10:24:32;;;;;;;;;;;;;;;16.79;40.74;93615.41;5060360;28;19948;-90
2023/03/01 10:26:57;;;;;;;;;;;;;;;16.81;40.78;93614.94;5071772;28;19920;-89
2023/03/01 10:29:24;;;;;;;;;;;;;;;16.78;40.67;93608.47;5064483;28;19932;-89
2023/03/01 10:31:50;;;;;;;;;;;;;;;16.79;40.30;93614.69;5060727;28;20444;-93
2023/03/01 10:34:16;;;;;;;;;;;;;;;16.77;40.18;93609.72;5059298;28;19928;-87
2023/03/01 10:36:42;;;;;;;;;;;;;;;16.77;40.40;93606.22;5052064;28;19984;-93
2023/03/01 10:39:14;;;;;;;;;;;;;;;16.77;40.31;93590.59;5065826;28;19971;-92
2023/03/01 10:41:44;;;;;;;;;;;;;;;16.79;40.42;93598.28;5074205;28;19932;-91
2023/03/01 10:44:09;;;;;;;;;;;;;;;16.79;40.94;93592.84;5069400;28;19974;-92
2023/03/01 10:46:35;;;;;;;;;;;;;;;16.82;40.97;93585.66;5067520;28;19920;-90
2023/03/01 10:49:07;;;;;;;;;;;;;;;16.85;40.77;93584.66;5055881;28;20440;-91
2023/03/01 10:51:32;;;;;;;;;;;;;;;16.83;40.83;93576.22;5081742;28;19924;-91
2023/03/01 10:53:57;;;;;;;;;;;;;;;16.83;40.45;93571.50;5058212;28;19932;-91
2023/03/01 10:56:23;;;;;;;;;;;;;;;16.82;40.97;93570.00;5063986;28;19939;-90
2023/03/01 10:58:58;;;;;;;;;;;;;;;16.82;40.63;93567.28;5045804;28;19928;-89
2023/03/01 11:01:25;;;;;;;;;;;;;;;16.81;40.49;93556.84;5084939;28;19931;-91
2023/03/01 11:04:06;;;;;;;;;;;;;;;16.79;40.79;93560.81;5061580;28;20377;-86
2023/03/01 11:06:34;;;;;;;;;;;;;;;16.79;40.87;93552.63;5048436;28;19955;-89
2023/03/01 11:09:18;;;;;;;;;;;;;;;16.79;40.81;93558.09;5066576;28;19924;-88
2023/03/01 11:11:43;;;;;;;;;;;;;;;16.81;40.91;93552.13;5083195;28;19931;-89
2023/03/01 11:14:20;;;;;;;;;;;;;;;16.82;41.11;93547.41;5072801;28;19920;-89
2023/03/01 11:16:48;;;;;;;;;;;;;;;16.83;40.86;93541.47;5051763;28;19924;-87
2023/03/01 11:19:17;;;;;;;;;;;;;;;16.86;40.88;93547.91;5061949;28;19932;-94
2023/03/01 11:22:03;;;;;;;;;;;;;;;16.86;40.73;93547.91;5074146;28;19933;-94
2023/03/01 11:24:31;;;;;;;;;;;;;;;16.87;40.89;93541.22;5091077;28;19935;-95
2023/03/01 11:26:57;;;;;;;;;;;;;;;16.89;40.63;93544.19;5060441;28;19960;-88
2023/03/01 11:29:35;;;;;;;;;;;;;;;16.88;40.74;93532.53;5052967;28;19928;-87
2023/03/01 11:32:01;;;;;;;;;;;;;;;16.89;40.55;93542.19;5066147;28;20412;-87
2023/03/01 11:34:38;;;;;;;;;;;;;;;16.89;40.56;93531.25;5057780;28;19924;-88
2023/03/01 11:37:10;;;;;;;;;;;;;;;16.86;40.86;93540.47;5057206;28;19964;-89
2023/03/01 11:39:44;;;;;;;;;;;;;;;16.87;40.95;93535.75;5053786;28;19935;-87
2023/03/01 11:42:14;;;;;;;;;;;;;;;16.88;40.78;93520.88;5064992;28;19924;-87
2023/03/01 11:44:39;;;;;;;;;;;;;;;16.88;40.85;93521.59;5062697;28;20192;-89
2023/03/01 11:47:08;;;;;;;;;;;;;;;16.91;40.69;93511.66;5051268;28;19935;-91
2023/03/01 11:49:46;;;;;;;;;;;;;;;16.88;41.22;93515.41;5069821;28;19925;-87
2023/03/01 11:52:16;;;;;;;;;;;;;;;16.89;40.81;93519.63;5072157;28;19934;-88
2023/03/01 11:55:00;;;;;;;;;;;;;;;16.89;41.00;93522.34;5043324;28;19936;-88
2023/03/01 11:57:25;;;;;;;;;;;;;;;16.88;40.72;93527.06;5083225;28;20015;-89
2023/03/01 11:59:57;;;;;;;;;;;;;;;16.85;41.12;93519.88;5066242;28;20011;-87
2023/03/01 12:02:40;;;;;;;;;;;;;;;16.83;41.28;93518.88;5064478;28;19933;-88
2023/03/01 12:05:09;;;;;;;;;;;;;;;16.82;40.77;93517.38;5071852;28;19921;-90
2023/03/01 12:07:50;;;;;;;;;;;;;;;16.82;41.13;93514.66;5074205;28;20015;-89
2023/03/01 12:10:22;;;;;;;;;;;;;;;16.84;41.31;93512.91;5074910;28;20365;-91
2023/03/01 12:13:01;;;;;;;;;;;;;;;16.83;41.16;93514.16;5044045;28;20305;-88
2023/03/01 12:15:38;;;;;;;;;;;;;;;16.82;41.25;93509.19;5041232;28;19925;-89
2023/03/01 12:18:10;;;;;;;;;;;;;;;16.82;41.05;93514.66;5056957;28;19924;-88
2023/03/01 12:20:42;;;;;;;;;;;;;;;16.82;41.30;93511.94;5065375;28;19936;-87
2023/03/01 12:23:13;;;;;;;;;;;;;;;16.84;41.37;93502.00;5064140;28;19963;-92
2023/03/01 12:25:46;;;;;;;;;;;;;;;16.84;41.48;93504.72;5084663;28;20007;-90
2023/03/01 12:28:31;;;;;;;;;;;;;;;16.82;41.48;93507.22;5072025;28;19927;-86
2023/03/01 12:30:56;;;;;;;;;;;;;;;16.84;41.07;93509.44;5064145;28;19976;-88
2023/03/01 12:33:23;;;;;;;;;;;;;;;16.84;40.97;93514.91;5061918;28;19982;-88
2023/03/01 12:36:07;;;;;;;;;;;;;;;16.85;40.96;93519.88;5064452;28;19929;-88
2023/03/01 12:38:37;;;;;;;;;;;;;;;16.84;41.27;93512.19;5073565;28;20289;-89
2023/03/01 12:41:15;;;;;;;;;;;;;;;16.83;41.31;93516.16;5068181;28;19928;-90
2023/03/01 12:43:40;;;;;;;;;;;;;;;16.83;41.33;93511.44;5067027;28;19942;-90
2023/03/01 12:46:25;;;;;;;;;;;;;;;16.85;41.26;93513.66;5091733;28;20203;-90
2023/03/01 12:48:55;;;;;;;;;;;;;;;16.87;41.10;93497.53;5066559;28;19924;-91